Time;durP1;ratioP1;P1;durP2;ratioP2;P2;SDS_P1;SDS_P2;PMS_P1;PMS_P2;Temp;Humidity;BMP_temperature;BMP_pressure;BME280_temperature;BME280_humidity;BME280_pressure;Samples;Min_cycle;Max_cycle;Signal;HPM_P1;HPM_P2
2022/08/12 00:44:51;;;;;;;6.80;4.45;;;;;;;-143.66;100.00;63766.88;5059890;28;20548;-65
2022/08/12 00:47:18;;;;;;;6.95;4.10;;;;;;;-143.66;100.00;63766.88;5065475;28;20071;-65
2022/08/12 00:49:45;;;;;;;7.15;4.78;;;;;;;-143.66;100.00;63766.88;5051528;28;20044;-65
2022/08/12 00:52:12;;;;;;;7.05;4.82;;;;;;;-143.66;100.00;63766.88;5059322;28;20442;-65
2022/08/12 00:54:40;;;;;;;5.78;4.20;;;;;;;-143.66;100.00;63766.88;5061392;28;20036;-65
2022/08/12 00:57:22;;;;;;;5.32;4.43;;;;;;;-143.66;100.00;63766.88;5060528;28;20119;-65
2022/08/12 00:59:55;;;;;;;5.93;4.63;;;;;;;-143.66;100.00;63766.88;5059071;28;20036;-65
2022/08/12 01:02:31;;;;;;;5.88;4.07;;;;;;;-143.66;100.00;63766.88;5061048;28;20123;-65
2022/08/12 01:13:25;;;;;;;5.07;4.30;;;;;;;-143.66;100.00;63766.88;5056981;28;20051;-65
2022/08/12 01:15:55;;;;;;;6.03;4.22;;;;;;;-143.66;100.00;63766.88;5056386;28;20425;-65
2022/08/12 01:18:27;;;;;;;;;;;;;;;-143.66;100.00;63766.88;5056107;28;20112;-65
2022/08/12 01:21:28;;;;;;;6.78;4.70;;;;;;;-143.66;100.00;63766.88;5058687;28;19982;-65
2022/08/12 01:24:34;;;;;;;6.35;4.18;;;;;;;-143.66;100.00;63766.88;4986649;28;20048;-65
2022/08/12 01:27:02;;;;;;;5.90;4.95;;;;;;;-143.66;100.00;63766.88;5056448;28;20044;-65
2022/08/12 01:29:33;;;;;;;7.45;4.32;;;;;;;-143.66;100.00;63766.88;5057070;28;20479;-65
2022/08/12 01:32:07;;;;;;;5.25;4.13;;;;;;;-143.66;100.00;63766.88;5059756;28;20043;-65
2022/08/12 01:34:35;;;;;;;5.50;4.18;;;;;;;-143.66;100.00;63766.88;5053834;28;20475;-65
2022/08/12 01:37:03;;;;;;;6.20;4.38;;;;;;;-143.66;100.00;63766.88;5063279;28;20651;-65
2022/08/12 01:39:31;;;;;;;6.40;3.97;;;;;;;-143.66;100.00;63766.88;5066393;28;20055;-65
2022/08/12 01:42:07;;;;;;;6.45;4.20;;;;;;;-143.66;100.00;63766.88;5065921;28;20041;-65
2022/08/12 01:44:34;;;;;;;4.90;4.18;;;;;;;-143.66;100.00;63766.88;5055288;28;20043;-65
2022/08/12 01:47:30;;;;;;;4.38;3.97;;;;;;;-143.66;100.00;63766.88;5063605;28;20106;-65
2022/08/12 01:50:15;;;;;;;4.53;4.10;;;;;;;-143.66;100.00;63766.88;5053006;28;20043;-65
2022/08/12 01:52:55;;;;;;;5.72;4.65;;;;;;;-143.66;100.00;63766.88;5057726;28;20071;-65
2022/08/12 01:55:27;;;;;;;5.30;4.22;;;;;;;-143.66;100.00;63766.88;5057249;28;20386;-65
2022/08/12 01:58:10;;;;;;;5.65;4.15;;;;;;;-143.66;100.00;63766.88;5056607;28;20119;-65
2022/08/12 02:00:47;;;;;;;6.93;4.07;;;;;;;-143.66;100.00;63766.88;5060807;28;20036;-65
2022/08/12 02:12:36;;;;;;;9.18;4.25;;;;;;;-143.66;100.00;63766.88;5069965;28;20032;-65
2022/08/12 02:15:47;;;;;;;5.40;4.20;;;;;;;-143.66;100.00;63766.88;5060324;28;20052;-65
2022/08/12 02:18:30;;;;;;;5.05;4.05;;;;;;;-143.66;100.00;63766.88;4976315;28;20030;-65
2022/08/12 02:21:18;;;;;;;4.60;4.03;;;;;;;-143.66;100.00;63766.88;4968219;28;20098;-65
2022/08/12 02:23:44;;;;;;;5.53;4.13;;;;;;;-143.66;100.00;63766.88;5033332;28;20068;-65
2022/08/12 02:26:11;;;;;;;6.05;4.05;;;;;;;-143.66;100.00;63766.88;5060440;28;20510;-65
2022/08/12 02:28:37;;;;;;;4.70;3.88;;;;;;;-143.66;100.00;63766.88;5050695;28;20036;-65
2022/08/12 02:31:07;;;;;;;5.38;4.10;;;;;;;-143.66;100.00;63766.88;5050901;28;20055;-66
2022/08/12 02:33:34;;;;;;;5.03;4.00;;;;;;;-143.66;100.00;63766.88;5060683;28;20090;-65
2022/08/12 02:36:01;;;;;;;7.25;4.47;;;;;;;-143.66;100.00;63766.88;5060377;28;20039;-65
2022/08/12 02:38:29;;;;;;;6.70;4.47;;;;;;;-143.66;100.00;63766.88;5062902;28;20036;-65
2022/08/12 02:40:57;;;;;;;4.15;3.67;;;;;;;-143.66;100.00;63766.88;5065564;28;20032;-65
2022/08/12 02:43:28;;;;;;;4.75;4.00;;;;;;;-143.66;100.00;63766.88;5048919;28;20074;-65
2022/08/12 02:45:59;;;;;;;7.03;4.25;;;;;;;-143.66;100.00;63766.88;5058832;28;20086;-65
2022/08/12 02:48:31;;;;;;;4.68;4.10;;;;;;;-143.66;100.00;63766.88;5053926;28;20036;-65
2022/08/12 02:51:03;;;;;;;5.05;4.03;;;;;;;-143.66;100.00;63766.88;5055487;28;20041;-65
2022/08/12 02:53:31;;;;;;;4.50;3.60;;;;;;;-143.66;100.00;63766.88;5062398;28;20039;-65
2022/08/12 02:55:59;;;;;;;5.68;4.13;;;;;;;-143.66;100.00;63766.88;5065944;28;20477;-65
2022/08/12 02:58:25;;;;;;;4.70;4.20;;;;;;;-143.66;100.00;63766.88;5059105;28;20047;-65
2022/08/12 03:00:51;;;;;;;7.68;4.10;;;;;;;-143.66;100.00;63766.88;5059510;28;20044;-65
2022/08/12 03:03:20;;;;;;;5.40;4.03;;;;;;;-143.66;100.00;63766.88;5063705;28;20560;-65
2022/08/12 03:05:57;;;;;;;5.40;4.10;;;;;;;-143.66;100.00;63766.88;5042472;28;20690;-65
2022/08/12 03:08:29;;;;;;;5.70;4.10;;;;;;;-143.66;100.00;63766.88;5067345;28;20080;-66
2022/08/12 03:11:02;;;;;;;8.80;4.25;;;;;;;-143.66;100.00;63766.88;5063352;28;20037;-66
2022/08/12 03:13:32;;;;;;;5.15;4.03;;;;;;;-143.66;100.00;63766.88;5065578;28;20079;-65
2022/08/12 03:15:58;;;;;;;5.00;4.05;;;;;;;-143.66;100.00;63766.88;5059694;28;20694;-65
2022/08/12 03:18:32;;;;;;;5.13;3.90;;;;;;;-143.66;100.00;63766.88;5063568;28;20048;-65
2022/08/12 03:20:59;;;;;;;6.88;4.25;;;;;;;-143.66;100.00;63766.88;5059156;28;20032;-65
2022/08/12 03:23:26;;;;;;;4.95;3.75;;;;;;;-143.66;100.00;63766.88;5059618;28;20056;-65
2022/08/12 03:25:55;;;;;;;4.88;3.75;;;;;;;-143.66;100.00;63766.88;5061688;28;20178;-65
2022/08/12 03:31:07;;;;;;;6.13;4.20;;;;;;;-143.66;100.00;63766.88;5058062;28;20056;-65
2022/08/12 03:33:36;;;;;;;4.35;3.55;;;;;;;-143.66;100.00;63766.88;5060030;28;20035;-65
2022/08/12 03:36:05;;;;;;;6.30;4.43;;;;;;;-143.66;100.00;63766.88;5058108;28;20528;-65
2022/08/12 03:38:31;;;;;;;;;;;;;;;-143.66;100.00;63766.88;5064035;28;20036;-66
2022/08/12 04:01:05;;;;;;;5.50;4.10;;;;;;;-143.66;100.00;63766.88;5061641;28;21415;-65
2022/08/12 04:03:52;;;;;;;4.72;3.88;;;;;;;-143.66;100.00;63766.88;5063083;28;20043;-66
2022/08/12 04:06:20;;;;;;;5.30;4.18;;;;;;;-143.66;100.00;63766.88;5057491;28;20045;-65
2022/08/12 04:08:52;;;;;;;6.88;3.97;;;;;;;-143.66;100.00;63766.88;5057747;28;20056;-65
2022/08/12 04:14:07;;;;;;;5.85;3.92;;;;;;;-143.66;100.00;63766.88;5066964;28;20032;-65
2022/08/12 04:16:33;;;;;;;6.28;3.88;;;;;;;-143.66;100.00;63766.88;5070610;28;20047;-65
2022/08/12 04:19:00;;;;;;;5.68;3.88;;;;;;;-143.66;100.00;63766.88;5060563;28;20045;-66
2022/08/12 04:21:25;;;;;;;6.05;3.70;;;;;;;-143.66;100.00;63766.88;5061404;28;20048;-66
2022/08/12 04:23:52;;;;;;;6.88;3.88;;;;;;;-143.66;100.00;63766.88;5060374;28;20453;-65
2022/08/12 04:26:18;;;;;;;5.75;3.97;;;;;;;-143.66;100.00;63766.88;5057424;28;20051;-65
2022/08/12 04:28:45;;;;;;;4.95;3.78;;;;;;;-143.66;100.00;63766.88;5064731;28;20065;-65
2022/08/12 04:31:11;;;;;;;7.22;4.22;;;;;;;-143.66;100.00;63766.88;5059911;28;20044;-65
2022/08/12 04:33:39;;;;;;;6.43;3.97;;;;;;;-143.66;100.00;63766.88;5056829;28;20086;-65
2022/08/12 04:36:05;;;;;;;4.60;3.92;;;;;;;-143.66;100.00;63766.88;5058334;28;20036;-65
2022/08/12 04:38:32;;;;;;;5.05;3.92;;;;;;;-143.66;100.00;63766.88;5056552;28;20060;-65
2022/08/12 04:40:58;;;;;;;5.50;4.05;;;;;;;-143.66;100.00;63766.88;5068373;28;20901;-65
2022/08/12 04:43:24;;;;;;;4.93;4.03;;;;;;;-143.66;100.00;63766.88;5065066;28;20552;-65
2022/08/12 04:45:51;;;;;;;5.72;4.10;;;;;;;-143.66;100.00;63766.88;5058392;28;20044;-65
2022/08/12 04:48:18;;;;;;;4.80;3.95;;;;;;;-143.66;100.00;63766.88;5058129;28;20070;-65
2022/08/12 04:50:44;;;;;;;4.32;3.67;;;;;;;-143.66;100.00;63766.88;5056875;28;20494;-65
2022/08/12 04:53:12;;;;;;;4.28;3.78;;;;;;;-143.66;100.00;63766.88;5046280;28;20035;-65
2022/08/12 04:55:39;;;;;;;5.65;4.03;;;;;;;-143.66;100.00;63766.88;5059125;28;20120;-65
2022/08/12 04:58:09;;;;;;;4.85;3.95;;;;;;;-143.66;100.00;63766.88;5059910;28;20036;-65
2022/08/12 05:00:36;;;;;;;5.10;4.32;;;;;;;-143.66;100.00;63766.88;5058777;28;20059;-65
2022/08/12 05:03:04;;;;;;;5.50;4.13;;;;;;;-143.66;100.00;63766.88;5055331;28;20158;-65
2022/08/12 05:05:31;;;;;;;4.25;3.65;;;;;;;-143.66;100.00;63766.88;5057575;28;20069;-65
2022/08/12 05:07:57;;;;;;;5.03;3.47;;;;;;;-143.66;100.00;63766.88;5053950;28;20148;-65
2022/08/12 05:10:23;;;;;;;5.03;4.13;;;;;;;-143.66;100.00;63766.88;5061488;28;20123;-65
2022/08/12 05:12:55;;;;;;;5.43;3.78;;;;;;;-143.66;100.00;63766.88;5064379;28;20044;-65
2022/08/12 05:15:20;;;;;;;4.03;3.20;;;;;;;-143.66;100.00;63766.88;5062516;28;20094;-65
2022/08/12 05:17:46;;;;;;;4.60;3.80;;;;;;;-143.66;100.00;63766.88;5059314;28;20036;-65
2022/08/12 05:20:14;;;;;;;5.78;3.95;;;;;;;-143.66;100.00;63766.88;5054780;28;20127;-65
2022/08/12 05:22:44;;;;;;;5.38;4.13;;;;;;;-143.66;100.00;63766.88;5059644;28;20040;-65
2022/08/12 05:25:10;;;;;;;6.53;3.95;;;;;;;-143.66;100.00;63766.88;5061460;28;20122;-65
2022/08/12 05:27:40;;;;;;;6.05;3.83;;;;;;;-143.66;100.00;63766.88;5059929;28;20039;-65
2022/08/12 05:30:07;;;;;;;4.50;3.88;;;;;;;-143.66;100.00;63766.88;5058586;28;20429;-65
2022/08/12 05:32:33;;;;;;;6.35;3.90;;;;;;;-143.66;100.00;63766.88;5062708;28;20032;-65
2022/08/12 05:35:05;;;;;;;4.78;3.72;;;;;;;-143.66;100.00;63766.88;5051503;28;20034;-65
2022/08/12 05:37:31;;;;;;;5.65;4.07;;;;;;;-143.66;100.00;63766.88;5060794;28;20611;-65
2022/08/12 05:39:57;;;;;;;5.63;3.85;;;;;;;-143.66;100.00;63766.88;5060735;28;20462;-65
2022/08/12 05:42:23;;;;;;;6.68;3.80;;;;;;;-143.66;100.00;63766.88;5064187;28;20155;-65
2022/08/12 05:44:48;;;;;;;6.57;3.58;;;;;;;-143.66;100.00;63766.88;5066935;28;20037;-65
2022/08/12 05:47:14;;;;;;;5.15;4.00;;;;;;;-143.66;100.00;63766.88;5058714;28;20040;-65
2022/08/12 05:49:40;;;;;;;5.72;4.10;;;;;;;-143.66;100.00;63766.88;5055818;28;20040;-65
2022/08/12 05:52:07;;;;;;;4.13;3.55;;;;;;;-143.66;100.00;63766.88;5060691;28;20151;-65
2022/08/12 05:54:33;;;;;;;5.35;3.90;;;;;;;-143.66;100.00;63766.88;5062018;28;20077;-65
2022/08/12 05:56:59;;;;;;;6.32;3.95;;;;;;;-143.66;100.00;63766.88;5055481;28;20045;-65
2022/08/12 05:59:24;;;;;;;5.47;4.00;;;;;;;-143.66;100.00;63766.88;5058378;28;20059;-65
2022/08/12 06:01:50;;;;;;;6.03;3.90;;;;;;;-143.66;100.00;63766.88;5059756;28;20041;-65
2022/08/12 06:04:15;;;;;;;5.03;3.65;;;;;;;-143.66;100.00;63766.88;5060437;28;20036;-65
2022/08/12 06:06:41;;;;;;;5.80;4.05;;;;;;;-143.66;100.00;63766.88;5058278;28;20033;-65
2022/08/12 06:09:12;;;;;;;5.05;4.07;;;;;;;-143.66;100.00;63766.88;5055931;28;20486;-65
2022/08/12 06:11:40;;;;;;;4.68;3.50;;;;;;;-143.66;100.00;63766.88;5064165;28;20035;-65
2022/08/12 06:14:07;;;;;;;4.40;3.80;;;;;;;-143.66;100.00;63766.88;5058464;28;20051;-65
2022/08/12 06:16:34;;;;;;;5.10;3.65;;;;;;;-143.66;100.00;63766.88;5067409;28;20812;-65
2022/08/12 06:19:00;;;;;;;4.65;3.70;;;;;;;-143.66;100.00;63766.88;5070789;28;20048;-65
2022/08/12 06:21:25;;;;;;;7.03;3.67;;;;;;;-143.66;100.00;63766.88;5067858;28;20048;-65
2022/08/12 06:23:51;;;;;;;5.78;4.18;;;;;;;-143.66;100.00;63766.88;5065201;28;20043;-65
2022/08/12 06:26:19;;;;;;;9.02;3.85;;;;;;;-143.66;100.00;63766.88;5069277;28;20032;-65
2022/08/12 06:28:50;;;;;;;4.90;3.83;;;;;;;-143.66;100.00;63766.88;5062488;28;20028;-65
2022/08/12 06:31:19;;;;;;;4.60;3.60;;;;;;;-143.66;100.00;63766.88;5062470;28;20024;-65
2022/08/12 06:33:46;;;;;;;5.37;3.87;;;;;;;-143.66;100.00;63766.88;5054751;28;20040;-67
2022/08/12 06:36:15;;;;;;;13.73;5.10;;;;;;;-143.66;100.00;63766.88;5058735;28;20459;-67
2022/08/12 06:38:42;;;;;;;12.87;5.23;;;;;;;-143.66;100.00;63766.88;5055197;28;20037;-67
2022/08/12 06:43:54;;;;;;;12.18;5.60;;;;;;;-143.66;100.00;63766.88;5064025;28;20040;-67
2022/08/12 06:46:20;;;;;;;8.48;5.50;;;;;;;-143.66;100.00;63766.88;5061640;28;20484;-67
2022/08/12 06:48:46;;;;;;;26.48;6.88;;;;;;;-143.66;100.00;63766.88;5053580;28;20036;-67
2022/08/12 06:51:12;;;;;;;25.13;7.25;;;;;;;-143.66;100.00;63766.88;5052397;28;20048;-67
2022/08/12 06:53:38;;;;;;;24.25;7.10;;;;;;;-143.66;100.00;63766.88;5058578;28;20364;-67
2022/08/12 06:56:04;;;;;;;14.15;6.38;;;;;;;-143.66;100.00;63766.88;5055373;28;20064;-67
2022/08/12 06:58:31;;;;;;;15.52;6.60;;;;;;;-143.66;100.00;63766.88;5055162;28;20091;-67
2022/08/12 07:00:58;;;;;;;12.13;5.55;;;;;;;-143.66;100.00;63766.88;5052271;28;20507;-67
2022/08/12 07:03:28;;;;;;;15.75;6.70;;;;;;;-143.66;100.00;63766.88;5055060;28;20040;-67
2022/08/12 07:05:59;;;;;;;12.00;5.80;;;;;;;-143.66;100.00;63766.88;5052459;28;20382;-67
2022/08/12 07:08:29;;;;;;;8.63;5.13;;;;;;;-143.66;100.00;63766.88;5058719;28;20414;-67
2022/08/12 07:10:58;;;;;;;11.07;6.45;;;;;;;-143.66;100.00;63766.88;5058529;28;20036;-67
2022/08/12 07:13:33;;;;;;;21.80;6.00;;;;;;;-143.66;100.00;63766.88;5064656;28;20565;-67
2022/08/12 07:16:00;;;;;;;12.85;5.10;;;;;;;-143.66;100.00;63766.88;5061234;28;20477;-67
2022/08/12 07:18:31;;;;;;;10.15;5.35;;;;;;;-143.66;100.00;63766.88;5063508;28;20410;-67
2022/08/12 07:21:02;;;;;;;8.10;5.38;;;;;;;-143.66;100.00;63766.88;5063186;28;20756;-67
2022/08/12 07:23:30;;;;;;;11.30;5.07;;;;;;;-143.66;100.00;63766.88;5059740;28;20044;-67
2022/08/12 07:25:56;;;;;;;10.52;5.00;;;;;;;-143.66;100.00;63766.88;5056608;28;21009;-67
2022/08/12 07:28:26;;;;;;;9.05;5.28;;;;;;;-143.66;100.00;63766.88;5057375;28;22163;-67
2022/08/12 07:30:53;;;;;;;13.10;5.05;;;;;;;-143.66;100.00;63766.88;5059823;28;20035;-67
2022/08/12 07:33:21;;;;;;;7.63;5.00;;;;;;;-143.66;100.00;63766.88;5058806;28;20040;-67
2022/08/12 07:35:48;;;;;;;6.22;4.25;;;;;;;-143.66;100.00;63766.88;5059166;28;20980;-67
2022/08/12 07:38:32;;;;;;;8.15;5.20;;;;;;;-143.66;100.00;63766.88;5043649;28;20048;-67
2022/08/12 07:41:14;;;;;;;10.13;4.80;;;;;;;-143.66;100.00;63766.88;5061383;28;20074;-67
2022/08/12 07:44:06;;;;;;;12.38;4.90;;;;;;;-143.66;100.00;63766.88;5064131;28;20082;-67
2022/08/12 07:46:39;;;;;;;7.43;4.65;;;;;;;-143.66;100.00;63766.88;5067715;28;20080;-67
2022/08/12 07:49:11;;;;;;;7.35;4.85;;;;;;;-143.66;100.00;63766.88;5070837;28;20075;-67
2022/08/12 07:51:37;;;;;;;8.65;4.97;;;;;;;-143.66;100.00;63766.88;5058068;28;20040;-67
2022/08/12 07:54:08;;;;;;;8.20;4.50;;;;;;;-143.66;100.00;63766.88;5063849;28;20040;-68
2022/08/12 07:56:38;;;;;;;7.95;4.68;;;;;;;-143.66;100.00;63766.88;5068056;28;20047;-67
2022/08/12 07:59:05;;;;;;;10.63;5.00;;;;;;;-143.66;100.00;63766.88;5060279;28;20623;-68
2022/08/12 08:01:31;;;;;;;8.65;5.00;;;;;;;-143.66;100.00;63766.88;5074180;28;20032;-68
2022/08/12 08:06:42;;;;;;;8.32;5.00;;;;;;;-143.66;100.00;63766.88;5066820;28;20040;-68
2022/08/12 08:09:09;;;;;;;9.32;4.50;;;;;;;-143.66;100.00;63766.88;5063116;28;20051;-68
2022/08/12 08:14:19;;;;;;;8.43;5.10;;;;;;;-143.66;100.00;63766.88;5063308;28;20062;-68
2022/08/12 08:16:47;;;;;;;6.82;4.68;;;;;;;-143.66;100.00;63766.88;5067053;28;20101;-68
2022/08/12 08:19:21;;;;;;;7.63;4.70;;;;;;;-143.66;100.00;63766.88;5059698;28;20070;-68
2022/08/12 08:21:47;;;;;;;5.10;4.53;;;;;;;-143.66;100.00;63766.88;5063350;28;20398;-67
2022/08/12 08:24:16;;;;;;;8.75;4.78;;;;;;;-143.66;100.00;63766.88;5059447;28;20051;-67
2022/08/12 08:26:43;;;;;;;8.45;5.03;;;;;;;-143.66;100.00;63766.88;5060569;28;20101;-68
2022/08/12 08:29:11;;;;;;;10.50;4.82;;;;;;;-143.66;100.00;63766.88;5058897;28;20040;-68
2022/08/12 08:31:42;;;;;;;7.15;5.10;;;;;;;-143.66;100.00;63766.88;5063687;28;20040;-68
2022/08/12 08:34:08;;;;;;;8.75;4.97;;;;;;;-143.66;100.00;63766.88;5059527;28;20146;-68
2022/08/12 08:36:34;;;;;;;10.75;5.78;;;;;;;-143.66;100.00;63766.88;5066952;28;20165;-68
2022/08/12 08:39:00;;;;;;;11.32;5.38;;;;;;;-143.66;100.00;63766.88;5046151;28;20044;-68
2022/08/12 08:44:10;;;;;;;9.43;5.93;;;;;;;-143.66;100.00;63766.88;5061579;28;20040;-68
2022/08/12 08:46:36;;;;;;;7.38;5.55;;;;;;;-143.66;100.00;63766.88;5056357;28;20043;-68
2022/08/12 08:49:04;;;;;;;10.15;5.72;;;;;;;-143.66;100.00;63766.88;5060135;28;20431;-68
2022/08/12 08:51:30;;;;;;;13.35;5.28;;;;;;;-143.66;100.00;63766.88;5050109;28;20078;-68
2022/08/12 08:53:55;;;;;;;10.43;5.60;;;;;;;-143.66;100.00;63766.88;5050805;28;20044;-68
2022/08/12 08:56:21;;;;;;;13.75;5.72;;;;;;;-143.66;100.00;63766.88;5048683;28;20039;-68
2022/08/12 08:58:48;;;;;;;12.80;5.80;;;;;;;-143.66;100.00;63766.88;5052983;28;20035;-68
2022/08/12 09:01:20;;;;;;;9.88;5.93;;;;;;;-143.66;100.00;63766.88;5068141;28;20542;-68
2022/08/12 09:03:47;;;;;;;9.27;5.72;;;;;;;-143.66;100.00;63766.88;5064708;28;20123;-67
2022/08/12 09:06:13;;;;;;;12.10;6.25;;;;;;;-143.66;100.00;63766.88;5059687;28;20044;-68
2022/08/12 09:08:43;;;;;;;9.40;5.30;;;;;;;-143.66;100.00;63766.88;5061106;28;20059;-67
2022/08/12 09:13:53;;;;;;;10.25;5.75;;;;;;;-143.66;100.00;63766.88;5058559;28;20785;-67
2022/08/12 09:16:19;;;;;;;9.45;5.40;;;;;;;-143.66;100.00;63766.88;5032926;28;20040;-67
2022/08/12 09:18:45;;;;;;;11.88;5.90;;;;;;;-143.66;100.00;63766.88;5054691;28;20032;-64
2022/08/12 09:21:11;;;;;;;10.20;5.50;;;;;;;-143.66;100.00;63766.88;5041717;28;20067;-64
2022/08/12 09:23:37;;;;;;;14.30;6.63;;;;;;;-143.66;100.00;63766.88;5060340;28;20078;-64
2022/08/12 09:26:02;;;;;;;8.63;5.63;;;;;;;-143.66;100.00;63766.88;5061670;28;20085;-65
2022/08/12 09:28:28;;;;;;;12.15;6.35;;;;;;;-143.66;100.00;63766.88;5055143;28;20105;-63
2022/08/12 09:30:57;;;;;;;9.15;5.50;;;;;;;-143.66;100.00;63766.88;5053240;28;20043;-64
2022/08/12 09:33:32;;;;;;;9.35;5.93;;;;;;;-143.66;100.00;63766.88;5055045;28;20028;-65
2022/08/12 09:35:59;;;;;;;10.00;5.82;;;;;;;-143.66;100.00;63766.88;5056389;28;20805;-65
2022/08/12 09:38:27;;;;;;;10.05;6.60;;;;;;;-143.66;100.00;63766.88;5058156;28;20032;-65
2022/08/12 09:40:52;;;;;;;8.70;5.75;;;;;;;-143.66;100.00;63766.88;5059216;28;20067;-65
2022/08/12 09:46:02;;;;;;;13.32;6.80;;;;;;;-143.66;100.00;63766.88;5059450;28;20036;-65
2022/08/12 09:48:28;;;;;;;9.10;6.55;;;;;;;-143.66;100.00;63766.88;5053817;28;20059;-64
2022/08/12 09:50:54;;;;;;;12.13;6.72;;;;;;;-143.66;100.00;63766.88;5060203;28;20401;-64
2022/08/12 09:53:23;;;;;;;10.82;7.13;;;;;;;-143.66;100.00;63766.88;5060153;28;20064;-64
2022/08/12 09:55:56;;;;;;;13.00;7.35;;;;;;;-143.66;100.00;63766.88;5061247;28;20047;-64
2022/08/12 09:58:27;;;;;;;11.25;6.80;;;;;;;-143.66;100.00;63766.88;5046501;28;20375;-64
2022/08/12 10:00:55;;;;;;;16.25;7.00;;;;;;;-143.66;100.00;63766.88;5058701;28;20510;-64
2022/08/12 10:03:25;;;;;;;12.35;6.97;;;;;;;-143.66;100.00;63766.88;5056192;28;20553;-64
2022/08/12 10:05:51;;;;;;;9.38;7.03;;;;;;;-143.66;100.00;63766.88;5062133;28;20117;-64
2022/08/12 10:08:17;;;;;;;12.38;6.65;;;;;;;-143.66;100.00;63766.88;5054073;28;20682;-64
2022/08/12 10:13:41;;;;;;;7.78;5.63;;;;;;;-143.66;100.00;63766.88;5069805;28;20621;-64
2022/08/12 10:16:18;;;;;;;9.77;6.65;;;;;;;-143.66;100.00;63766.88;5064365;28;20069;-64
2022/08/12 10:19:04;;;;;;;11.55;7.00;;;;;;;-143.66;100.00;63766.88;5062144;28;20029;-64
2022/08/12 10:21:35;;;;;;;12.57;6.60;;;;;;;-143.66;100.00;63766.88;5072095;28;20385;-64
2022/08/12 10:24:07;;;;;;;11.55;7.00;;;;;;;-143.66;100.00;63766.88;5066504;28;20036;-64
2022/08/12 10:29:38;;;;;;;9.55;6.75;;;;;;;-143.66;100.00;63766.88;5063959;28;20055;-64
2022/08/12 10:32:08;;;;;;;8.57;5.70;;;;;;;-143.66;100.00;63766.88;5063311;28;20545;-64
2022/08/12 10:34:34;;;;;;;7.95;5.50;;;;;;;-143.66;100.00;63766.88;5063147;28;20479;-64
2022/08/12 10:37:02;;;;;;;10.10;6.05;;;;;;;-143.66;100.00;63766.88;5060661;28;20029;-64
2022/08/12 10:39:34;;;;;;;8.23;6.30;;;;;;;-143.66;100.00;63766.88;5061791;28;20032;-64
2022/08/12 10:45:00;;;;;;;12.25;6.50;;;;;;;-143.66;100.00;63766.88;5061572;28;20131;-64
2022/08/12 10:47:30;;;;;;;11.25;6.25;;;;;;;-143.66;100.00;63766.88;5057580;28;20040;-64
2022/08/12 10:49:58;;;;;;;8.10;6.10;;;;;;;-143.66;100.00;63766.88;5056575;28;20032;-64
2022/08/12 10:52:25;;;;;;;10.07;6.90;;;;;;;-143.66;100.00;63766.88;5056032;28;20525;-63
2022/08/12 10:54:51;;;;;;;9.38;6.18;;;;;;;-143.66;100.00;63766.88;5065654;28;20048;-64
2022/08/12 10:57:17;;;;;;;8.27;6.60;;;;;;;-143.66;100.00;63766.88;5064128;28;20367;-64
2022/08/12 10:59:44;;;;;;;8.98;5.80;;;;;;;-143.66;100.00;63766.88;5068109;28;20233;-63
2022/08/12 11:02:12;;;;;;;10.48;6.75;;;;;;;-143.66;100.00;63766.88;5063786;28;20040;-64
2022/08/12 11:04:39;;;;;;;9.25;6.57;;;;;;;-143.66;100.00;63766.88;5063334;28;20058;-64
2022/08/12 11:07:06;;;;;;;8.13;6.05;;;;;;;-143.66;100.00;63766.88;5061329;28;20059;-64
2022/08/12 11:09:32;;;;;;;8.30;6.05;;;;;;;-143.66;100.00;63766.88;5064973;28;20060;-63
2022/08/12 11:12:06;;;;;;;8.88;6.18;;;;;;;-143.66;100.00;63766.88;5060611;28;20040;-64
2022/08/12 11:14:33;;;;;;;9.27;6.05;;;;;;;-143.66;100.00;63766.88;5063543;28;20119;-63
2022/08/12 11:17:11;;;;;;;6.90;6.05;;;;;;;-143.66;100.00;63766.88;5043802;28;20454;-64
2022/08/12 11:19:38;;;;;;;9.35;6.28;;;;;;;-143.66;100.00;63766.88;5063568;28;20557;-64
2022/08/12 11:22:09;;;;;;;10.77;6.40;;;;;;;-143.66;100.00;63766.88;5059934;28;20081;-64
2022/08/12 11:24:35;;;;;;;6.90;5.65;;;;;;;-143.66;100.00;63766.88;5062869;28;20043;-64
2022/08/12 11:27:05;;;;;;;10.43;6.55;;;;;;;-143.66;100.00;63766.88;5062047;28;20513;-64
2022/08/12 11:29:31;;;;;;;8.18;6.80;;;;;;;-143.66;100.00;63766.88;5061557;28;20044;-64
2022/08/12 11:31:56;;;;;;;10.45;5.93;;;;;;;-143.66;100.00;63766.88;5057381;28;20073;-63
2022/08/12 11:34:22;;;;;;;7.95;6.10;;;;;;;-143.66;100.00;63766.88;5040422;28;20036;-63
2022/08/12 11:36:52;;;;;;;7.65;6.38;;;;;;;-143.66;100.00;63766.88;5054722;28;20746;-63
2022/08/12 11:39:18;;;;;;;9.63;6.20;;;;;;;-143.66;100.00;63766.88;5059859;28;20485;-64
2022/08/12 11:41:44;;;;;;;9.43;6.13;;;;;;;-143.66;100.00;63766.88;5058334;28;20757;-63
2022/08/12 11:44:10;;;;;;;9.32;5.97;;;;;;;-143.66;100.00;63766.88;5061415;28;20053;-64
2022/08/12 11:46:37;;;;;;;8.13;6.30;;;;;;;-143.66;100.00;63766.88;5061437;28;20028;-64
2022/08/12 11:49:03;;;;;;;11.10;5.70;;;;;;;-143.66;100.00;63766.88;5068117;28;22023;-64
2022/08/12 11:51:29;;;;;;;8.95;5.80;;;;;;;-143.66;100.00;63766.88;5040679;28;20040;-64
2022/08/12 11:53:55;;;;;;;7.30;5.40;;;;;;;-143.66;100.00;63766.88;5059659;28;20040;-64
2022/08/12 11:56:20;;;;;;;14.35;6.53;;;;;;;-143.66;100.00;63766.88;5060066;28;20047;-64
2022/08/12 11:58:47;;;;;;;7.13;5.78;;;;;;;-143.66;100.00;63766.88;5057478;28;20051;-64
2022/08/12 12:01:13;;;;;;;8.48;5.88;;;;;;;-143.66;100.00;63766.88;5058467;28;20048;-64
2022/08/12 12:03:39;;;;;;;7.78;5.95;;;;;;;-143.66;100.00;63766.88;5043263;28;20056;-64
2022/08/12 12:06:04;;;;;;;7.38;5.80;;;;;;;-143.66;100.00;63766.88;5059339;28;20046;-64
2022/08/12 12:08:30;;;;;;;8.43;5.90;;;;;;;-143.66;100.00;63766.88;5057377;28;20052;-64
2022/08/12 12:10:56;;;;;;;10.57;6.20;;;;;;;-143.66;100.00;63766.88;5061357;28;20047;-66
2022/08/12 12:13:22;;;;;;;11.25;6.38;;;;;;;-143.66;100.00;63766.88;5060664;28;20044;-64
2022/08/12 12:15:47;;;;;;;9.35;5.25;;;;;;;-143.66;100.00;63766.88;5057805;28;20089;-64
2022/08/12 12:18:29;;;;;;;8.07;5.93;;;;;;;-143.66;100.00;63766.88;5063149;28;20059;-64
2022/08/12 12:20:58;;;;;;;9.15;5.72;;;;;;;-143.66;100.00;63766.88;5055474;28;20123;-64
2022/08/12 12:23:24;;;;;;;9.57;6.25;;;;;;;-143.66;100.00;63766.88;5051049;28;20597;-64
2022/08/12 12:25:50;;;;;;;10.20;5.95;;;;;;;-143.66;100.00;63766.88;5057524;28;20032;-66
2022/08/12 12:28:16;;;;;;;8.27;5.80;;;;;;;-143.66;100.00;63766.88;5059941;28;20036;-66
2022/08/12 12:30:42;;;;;;;9.85;5.93;;;;;;;-143.66;100.00;63766.88;5056013;28;20523;-65
2022/08/12 12:33:09;;;;;;;14.73;6.22;;;;;;;-143.66;100.00;63766.88;5059905;28;20044;-64
2022/08/12 12:35:35;;;;;;;9.00;5.50;;;;;;;-143.66;100.00;63766.88;5055714;28;20756;-67
2022/08/12 12:38:12;;;;;;;11.05;5.93;;;;;;;-143.66;100.00;63766.88;5061636;28;20045;-64
2022/08/12 12:40:40;;;;;;;7.97;5.47;;;;;;;-143.66;100.00;63766.88;5056275;28;20050;-64
2022/08/12 12:43:07;;;;;;;7.57;5.57;;;;;;;-143.66;100.00;63766.88;5053649;28;20041;-64
2022/08/12 12:45:35;;;;;;;6.57;5.00;;;;;;;-143.66;100.00;63766.88;5059031;28;20033;-64
2022/08/12 12:48:06;;;;;;;12.73;6.10;;;;;;;-143.66;100.00;63766.88;5057738;28;20029;-64
2022/08/12 12:50:34;;;;;;;7.93;5.70;;;;;;;-143.66;100.00;63766.88;5057573;28;20032;-66
2022/08/12 12:52:59;;;;;;;9.40;5.75;;;;;;;-143.66;100.00;63766.88;5057080;28;20071;-64
2022/08/12 12:55:26;;;;;;;12.68;5.25;;;;;;;-143.66;100.00;63766.88;5058633;28;20064;-64
2022/08/12 12:57:52;;;;;;;6.78;5.35;;;;;;;-143.66;100.00;63766.88;5058132;28;20447;-65
2022/08/12 13:00:20;;;;;;;7.85;5.45;;;;;;;-143.66;100.00;63766.88;5060407;28;20044;-64
2022/08/12 13:02:57;;;;;;;7.90;6.07;;;;;;;-143.66;100.00;63766.88;5055024;28;20036;-64
2022/08/12 13:05:31;;;;;;;7.65;5.18;;;;;;;-143.66;100.00;63766.88;5059837;28;20559;-64
2022/08/12 13:07:59;;;;;;;8.32;5.82;;;;;;;-143.66;100.00;63766.88;5056039;28;20049;-64